OCE weather

Ocean City Municipal Airport
Ocean City, Maryland, United States

Public forecast

Using degrees Fahrenheit for public forecast. Weather courtesy of forecast.io.

METAR (pilot weather report)

Retrieved 2019/04/22 07:53 UTC (41 minutes ago):

KOXB 220753Z AUTO 00000KT 10SM CLR 12/11 A3003 RMK AO2 SLP167 T01170106

TAF (pilot weather forecast)

Closest forecast is Salisbury Ocean City Wicomico Regional Airport, 18.3 nm (33.9 km) W. Retrieved 2019/04/22 06:22 UTC (2 hours ago):

TAF KSBY 220520Z 2206/2306 VRB03KT P6SM OVC120 FM221300 33006KT P6SM BKN050 FM221700 32010G18KT P6SM SCT040 FM230000 28005KT P6SM FEW150